Aérodrome :
LOGIN :

S'inscrire | Disclaimer

   EN    FR    IT 

 










Légende :    VFR   VFR Marginal   IFR   IFR Intensif   IFR Très Intensif
Visi : 
Plafond : 
>= 8 km
>= 3000ft
5 à 8 km
1000 à 3000 ft
1500m à 5 km
500 à 1000 ft
800 à 1500m
200 à 500 ft
< 800m
< 200 ft
Symboles :   Orages  Brouillard  Fortes neiges  Fortes précipitations  Vent > 20 kt
SIGMETs :   Divers  Orages  Givrage  Turbulence  Onde Orograph.  Cendres Volcan.







- Altitude de l'aérodrome : 821 ft
- Code IATA : LYS
- Voir les cartes d'approche


LFLL - Lyon St Exupéry / Satolas

DERNIER METAR :
  • 251130Z 34015KT CAVOK 24/10 Q1019 NOSIG

METARs EXPIRÉS :
  • 251100Z 36012KT 320V030 9999 FEW050 23/10 Q1019 NOSIG
  • 251030Z 36013KT 9999 FEW050 22/10 Q1019 NOSIG
  • 251000Z 36011KT CAVOK 22/09 Q1019 NOSIG
  • 250930Z 35012KT 320V030 CAVOK 22/10 Q1019 NOSIG
  • 250900Z 35007KT 300V030 CAVOK 20/10 Q1019 NOSIG

TAF TAF LFLL
Valide du 25 à 12h jusqu'au 26 à 18h UTC


251100Z 2512/2618 34013KT CAVOK
TEMPO 2512/2520 36015G25KT
TEMPO 2600/2608 VRB03KT
Pas de NOTAMs connus pour ce terrain.



MET'MAP, la Météo Aéronautique d'un coup d'oeil ! - Copyright ORBIFLY Décembre 2007 - Disclaimer

ORBIFLY MET'MAP TEAM :

Programmation & Développement : Alexandra Zaïnal
Conception & Développement : Baudouin d'Aumeries
Co-Programmation & Développement : Marc-Olivier Méhu
Soutien technique & logistique : Manuel Goepfert

Contact : metmap@orbifly.com




SOURCES & CREDITS :

   NOAA